sensor_id;sensor_type;location;lat;lon;timestamp;temperature;humidity
22996;DHT22;11664;49.774;8.650;2023-03-01T00:00:04;-0.50;99.90
22996;DHT22;11664;49.774;8.650;2023-03-01T00:02:33;-0.60;99.90
22996;DHT22;11664;49.774;8.650;2023-03-01T00:05:02;-0.70;99.90
22996;DHT22;11664;49.774;8.650;2023-03-01T00:07:28;-0.70;99.90
22996;DHT22;11664;49.774;8.650;2023-03-01T00:10:18;-0.70;99.90
22996;DHT22;11664;49.774;8.650;2023-03-01T00:12:47;-0.70;99.90
22996;DHT22;11664;49.774;8.650;2023-03-01T00:15:21;-0.70;99.90
22996;DHT22;11664;49.774;8.650;2023-03-01T00:17:47;-0.80;99.90
22996;DHT22;11664;49.774;8.650;2023-03-01T00:20:16;-0.80;99.90
22996;DHT22;11664;49.774;8.650;2023-03-01T00:22:42;-0.80;99.90
22996;DHT22;11664;49.774;8.650;2023-03-01T00:25:07;-0.70;99.90
22996;DHT22;11664;49.774;8.650;2023-03-01T00:27:39;-0.70;99.90
22996;DHT22;11664;49.774;8.650;2023-03-01T00:30:11;-0.60;99.90
22996;DHT22;11664;49.774;8.650;2023-03-01T00:32:40;-0.60;99.90
22996;DHT22;11664;49.774;8.650;2023-03-01T00:35:05;-0.60;99.90
22996;DHT22;11664;49.774;8.650;2023-03-01T00:37:40;-0.70;99.90
22996;DHT22;11664;49.774;8.650;2023-03-01T00:40:07;-0.70;99.90
22996;DHT22;11664;49.774;8.650;2023-03-01T00:42:33;-0.70;99.90
22996;DHT22;11664;49.774;8.650;2023-03-01T00:45:20;-0.70;99.90
22996;DHT22;11664;49.774;8.650;2023-03-01T00:47:55;-0.80;99.90
22996;DHT22;11664;49.774;8.650;2023-03-01T00:50:39;-0.80;99.90
22996;DHT22;11664;49.774;8.650;2023-03-01T00:53:20;-0.90;99.90
22996;DHT22;11664;49.774;8.650;2023-03-01T00:55:48;-0.90;99.90
22996;DHT22;11664;49.774;8.650;2023-03-01T00:58:20;-0.90;99.90
22996;DHT22;11664;49.774;8.650;2023-03-01T01:00:45;-0.90;99.90
22996;DHT22;11664;49.774;8.650;2023-03-01T01:03:14;-1.00;99.90
22996;DHT22;11664;49.774;8.650;2023-03-01T01:05:39;-1.00;99.90
22996;DHT22;11664;49.774;8.650;2023-03-01T01:08:20;-1.00;99.90
22996;DHT22;11664;49.774;8.650;2023-03-01T01:11:01;-1.00;99.90
22996;DHT22;11664;49.774;8.650;2023-03-01T01:13:37;-1.00;99.90
22996;DHT22;11664;49.774;8.650;2023-03-01T01:16:09;-1.00;99.90
22996;DHT22;11664;49.774;8.650;2023-03-01T01:18:37;-0.90;99.90
22996;DHT22;11664;49.774;8.650;2023-03-01T01:21:15;-1.00;99.90
22996;DHT22;11664;49.774;8.650;2023-03-01T01:23:45;-1.00;99.90
22996;DHT22;11664;49.774;8.650;2023-03-01T01:26:20;-1.00;99.90
22996;DHT22;11664;49.774;8.650;2023-03-01T01:28:47;-1.00;99.90
22996;DHT22;11664;49.774;8.650;2023-03-01T01:31:18;-1.10;99.90
22996;DHT22;11664;49.774;8.650;2023-03-01T01:33:47;-1.10;99.90
22996;DHT22;11664;49.774;8.650;2023-03-01T01:36:12;-1.20;99.90
22996;DHT22;11664;49.774;8.650;2023-03-01T01:38:38;-1.20;99.90
22996;DHT22;11664;49.774;8.650;2023-03-01T01:41:11;-1.30;99.90
22996;DHT22;11664;49.774;8.650;2023-03-01T01:43:49;-1.30;99.90
22996;DHT22;11664;49.774;8.650;2023-03-01T01:46:23;-1.30;99.90
22996;DHT22;11664;49.774;8.650;2023-03-01T01:51:51;-1.20;99.90
22996;DHT22;11664;49.774;8.650;2023-03-01T01:57:18;-1.20;99.90
22996;DHT22;11664;49.774;8.650;2023-03-01T01:59:49;-1.20;99.90
22996;DHT22;11664;49.774;8.650;2023-03-01T02:02:19;-1.00;99.90
22996;DHT22;11664;49.774;8.650;2023-03-01T02:05:06;-1.00;99.90
22996;DHT22;11664;49.774;8.650;2023-03-01T02:07:39;-1.00;99.90
22996;DHT22;11664;49.774;8.650;2023-03-01T02:13:30;-1.00;99.90
22996;DHT22;11664;49.774;8.650;2023-03-01T02:16:04;-1.10;99.90
22996;DHT22;11664;49.774;8.650;2023-03-01T02:18:30;-1.00;99.90
22996;DHT22;11664;49.774;8.650;2023-03-01T02:24:22;-1.00;99.90
22996;DHT22;11664;49.774;8.650;2023-03-01T02:27:00;-1.00;99.90
22996;DHT22;11664;49.774;8.650;2023-03-01T02:29:29;-1.10;99.90
22996;DHT22;11664;49.774;8.650;2023-03-01T02:31:56;-1.10;99.90
22996;DHT22;11664;49.774;8.650;2023-03-01T02:34:27;-1.00;99.90
22996;DHT22;11664;49.774;8.650;2023-03-01T02:37:01;-1.10;99.90
22996;DHT22;11664;49.774;8.650;2023-03-01T02:39:38;-1.10;99.90
22996;DHT22;11664;49.774;8.650;2023-03-01T02:42:15;-1.00;99.90
22996;DHT22;11664;49.774;8.650;2023-03-01T02:44:49;-0.90;99.90
22996;DHT22;11664;49.774;8.650;2023-03-01T02:53:53;-1.00;99.90
22996;DHT22;11664;49.774;8.650;2023-03-01T02:56:24;-1.10;99.90
22996;DHT22;11664;49.774;8.650;2023-03-01T02:58:51;-1.10;99.90
22996;DHT22;11664;49.774;8.650;2023-03-01T03:01:18;-1.10;99.90
22996;DHT22;11664;49.774;8.650;2023-03-01T03:03:50;-1.10;99.90
22996;DHT22;11664;49.774;8.650;2023-03-01T03:06:15;-1.10;99.90
22996;DHT22;11664;49.774;8.650;2023-03-01T03:08:53;-1.10;99.90
22996;DHT22;11664;49.774;8.650;2023-03-01T03:11:21;-1.20;99.90
22996;DHT22;11664;49.774;8.650;2023-03-01T03:13:50;-1.20;99.90
22996;DHT22;11664;49.774;8.650;2023-03-01T03:16:24;-1.20;99.90
22996;DHT22;11664;49.774;8.650;2023-03-01T03:18:56;-1.30;99.90
22996;DHT22;11664;49.774;8.650;2023-03-01T03:21:51;-1.30;99.90
22996;DHT22;11664;49.774;8.650;2023-03-01T03:24:16;-1.30;99.90
22996;DHT22;11664;49.774;8.650;2023-03-01T03:26:49;-1.30;99.90
22996;DHT22;11664;49.774;8.650;2023-03-01T03:29:16;-1.40;99.90
22996;DHT22;11664;49.774;8.650;2023-03-01T03:31:45;-1.40;99.90
22996;DHT22;11664;49.774;8.650;2023-03-01T03:34:16;-1.40;99.90
22996;DHT22;11664;49.774;8.650;2023-03-01T03:36:43;-1.40;99.90
22996;DHT22;11664;49.774;8.650;2023-03-01T03:39:08;-1.50;99.90
22996;DHT22;11664;49.774;8.650;2023-03-01T03:41:34;-1.40;99.90
22996;DHT22;11664;49.774;8.650;2023-03-01T03:44:00;-1.40;99.90
22996;DHT22;11664;49.774;8.650;2023-03-01T03:46:28;-1.40;99.90
22996;DHT22;11664;49.774;8.650;2023-03-01T03:49:00;-1.40;99.90
22996;DHT22;11664;49.774;8.650;2023-03-01T03:51:25;-1.30;99.90
22996;DHT22;11664;49.774;8.650;2023-03-01T03:54:00;-1.30;99.90
22996;DHT22;11664;49.774;8.650;2023-03-01T03:56:25;-1.30;99.90
22996;DHT22;11664;49.774;8.650;2023-03-01T03:58:52;-1.40;99.90
22996;DHT22;11664;49.774;8.650;2023-03-01T04:01:20;-1.40;99.90
22996;DHT22;11664;49.774;8.650;2023-03-01T04:03:46;-1.40;99.90
22996;DHT22;11664;49.774;8.650;2023-03-01T04:06:13;-1.40;99.90
22996;DHT22;11664;49.774;8.650;2023-03-01T04:08:41;-1.50;99.90
22996;DHT22;11664;49.774;8.650;2023-03-01T04:11:07;-1.40;99.90
22996;DHT22;11664;49.774;8.650;2023-03-01T04:13:56;-1.40;99.90
22996;DHT22;11664;49.774;8.650;2023-03-01T04:16:25;-1.40;99.90
22996;DHT22;11664;49.774;8.650;2023-03-01T04:18:54;-1.40;99.90
22996;DHT22;11664;49.774;8.650;2023-03-01T04:21:20;-1.40;99.90
22996;DHT22;11664;49.774;8.650;2023-03-01T04:23:52;-1.40;99.90
22996;DHT22;11664;49.774;8.650;2023-03-01T04:26:24;-1.40;99.90
22996;DHT22;11664;49.774;8.650;2023-03-01T04:29:11;-1.40;99.90
22996;DHT22;11664;49.774;8.650;2023-03-01T04:31:40;-1.30;99.90
22996;DHT22;11664;49.774;8.650;2023-03-01T04:34:21;-1.20;99.90
22996;DHT22;11664;49.774;8.650;2023-03-01T04:36:52;-1.20;99.90
22996;DHT22;11664;49.774;8.650;2023-03-01T04:39:24;-1.20;99.90
22996;DHT22;11664;49.774;8.650;2023-03-01T04:41:52;-1.10;99.90
22996;DHT22;11664;49.774;8.650;2023-03-01T04:44:21;-1.10;99.90
22996;DHT22;11664;49.774;8.650;2023-03-01T04:46:49;-1.10;99.90
22996;DHT22;11664;49.774;8.650;2023-03-01T04:49:14;-1.20;99.90
22996;DHT22;11664;49.774;8.650;2023-03-01T04:51:44;-1.10;99.90
22996;DHT22;11664;49.774;8.650;2023-03-01T04:54:19;-1.10;99.90
22996;DHT22;11664;49.774;8.650;2023-03-01T04:56:44;-1.10;99.90
22996;DHT22;11664;49.774;8.650;2023-03-01T04:59:19;-1.10;99.90
22996;DHT22;11664;49.774;8.650;2023-03-01T05:01:48;-1.10;99.90
22996;DHT22;11664;49.774;8.650;2023-03-01T05:04:14;-1.10;99.90
22996;DHT22;11664;49.774;8.650;2023-03-01T05:06:43;-1.10;99.90
22996;DHT22;11664;49.774;8.650;2023-03-01T05:09:15;-1.10;99.90
22996;DHT22;11664;49.774;8.650;2023-03-01T05:12:02;-1.10;99.90
22996;DHT22;11664;49.774;8.650;2023-03-01T05:14:28;-1.10;99.90
22996;DHT22;11664;49.774;8.650;2023-03-01T05:16:54;-1.10;99.90
22996;DHT22;11664;49.774;8.650;2023-03-01T05:19:22;-1.10;99.90
22996;DHT22;11664;49.774;8.650;2023-03-01T05:21:48;-1.00;99.90
22996;DHT22;11664;49.774;8.650;2023-03-01T05:24:34;-1.10;99.90
22996;DHT22;11664;49.774;8.650;2023-03-01T05:27:09;-1.10;99.90
22996;DHT22;11664;49.774;8.650;2023-03-01T05:29:35;-1.10;99.90
22996;DHT22;11664;49.774;8.650;2023-03-01T05:32:02;-1.10;99.90
22996;DHT22;11664;49.774;8.650;2023-03-01T05:34:31;-1.10;99.90
22996;DHT22;11664;49.774;8.650;2023-03-01T05:37:01;-1.10;99.90
22996;DHT22;11664;49.774;8.650;2023-03-01T05:39:29;-1.10;99.90
22996;DHT22;11664;49.774;8.650;2023-03-01T05:41:57;-1.10;99.90
22996;DHT22;11664;49.774;8.650;2023-03-01T05:44:27;-1.10;99.90
22996;DHT22;11664;49.774;8.650;2023-03-01T05:46:53;-1.10;99.90
22996;DHT22;11664;49.774;8.650;2023-03-01T05:49:31;-1.10;99.90
22996;DHT22;11664;49.774;8.650;2023-03-01T05:52:07;-1.10;99.90
22996;DHT22;11664;49.774;8.650;2023-03-01T05:54:51;-1.20;99.90
22996;DHT22;11664;49.774;8.650;2023-03-01T05:57:23;-1.20;99.90
22996;DHT22;11664;49.774;8.650;2023-03-01T05:59:52;-1.20;99.90
22996;DHT22;11664;49.774;8.650;2023-03-01T06:02:20;-1.20;99.90
22996;DHT22;11664;49.774;8.650;2023-03-01T06:04:52;-1.20;99.90
22996;DHT22;11664;49.774;8.650;2023-03-01T06:07:26;-1.20;99.90
22996;DHT22;11664;49.774;8.650;2023-03-01T06:10:09;-1.20;99.90
22996;DHT22;11664;49.774;8.650;2023-03-01T06:12:37;-1.20;99.90
22996;DHT22;11664;49.774;8.650;2023-03-01T06:15:03;-1.20;99.90
22996;DHT22;11664;49.774;8.650;2023-03-01T06:17:33;-1.20;99.90
22996;DHT22;11664;49.774;8.650;2023-03-01T06:20:17;-1.20;99.90
22996;DHT22;11664;49.774;8.650;2023-03-01T06:22:44;-1.20;99.90
22996;DHT22;11664;49.774;8.650;2023-03-01T06:25:11;-1.20;99.90
22996;DHT22;11664;49.774;8.650;2023-03-01T06:27:38;-1.10;99.90
22996;DHT22;11664;49.774;8.650;2023-03-01T06:30:13;-1.10;99.90
22996;DHT22;11664;49.774;8.650;2023-03-01T06:32:40;-1.10;99.90
22996;DHT22;11664;49.774;8.650;2023-03-01T06:35:12;-1.10;99.90
22996;DHT22;11664;49.774;8.650;2023-03-01T06:37:38;-1.00;99.90
22996;DHT22;11664;49.774;8.650;2023-03-01T06:40:04;-1.00;99.90
22996;DHT22;11664;49.774;8.650;2023-03-01T06:42:37;-1.00;99.90
22996;DHT22;11664;49.774;8.650;2023-03-01T06:45:10;-0.90;99.90
22996;DHT22;11664;49.774;8.650;2023-03-01T06:47:36;-0.90;99.90
22996;DHT22;11664;49.774;8.650;2023-03-01T06:50:02;-0.90;99.90
22996;DHT22;11664;49.774;8.650;2023-03-01T06:52:31;-0.80;99.90
22996;DHT22;11664;49.774;8.650;2023-03-01T06:54:56;-0.70;99.90
22996;DHT22;11664;49.774;8.650;2023-03-01T06:57:25;-0.70;99.90
22996;DHT22;11664;49.774;8.650;2023-03-01T06:59:51;-0.70;99.90
22996;DHT22;11664;49.774;8.650;2023-03-01T07:02:16;-0.70;99.90
22996;DHT22;11664;49.774;8.650;2023-03-01T07:04:42;-0.70;99.90
22996;DHT22;11664;49.774;8.650;2023-03-01T07:07:14;-0.60;99.90
22996;DHT22;11664;49.774;8.650;2023-03-01T07:09:39;-0.60;99.90
22996;DHT22;11664;49.774;8.650;2023-03-01T07:12:11;-0.50;99.90
22996;DHT22;11664;49.774;8.650;2023-03-01T07:14:46;-0.50;99.90
22996;DHT22;11664;49.774;8.650;2023-03-01T07:17:15;-0.50;99.90
22996;DHT22;11664;49.774;8.650;2023-03-01T07:19:40;-0.40;99.90
22996;DHT22;11664;49.774;8.650;2023-03-01T07:22:12;-0.30;99.90
22996;DHT22;11664;49.774;8.650;2023-03-01T07:24:41;-0.30;99.90
22996;DHT22;11664;49.774;8.650;2023-03-01T07:27:13;-0.20;99.90
22996;DHT22;11664;49.774;8.650;2023-03-01T07:29:38;-0.10;99.90
22996;DHT22;11664;49.774;8.650;2023-03-01T07:32:05;-0.10;99.90
22996;DHT22;11664;49.774;8.650;2023-03-01T07:34:33;0.00;99.90
22996;DHT22;11664;49.774;8.650;2023-03-01T07:36:59;0.10;99.90
22996;DHT22;11664;49.774;8.650;2023-03-01T07:39:34;0.10;99.90
22996;DHT22;11664;49.774;8.650;2023-03-01T07:41:59;0.20;99.90
22996;DHT22;11664;49.774;8.650;2023-03-01T07:44:37;0.20;99.90
22996;DHT22;11664;49.774;8.650;2023-03-01T07:47:05;0.30;99.90
22996;DHT22;11664;49.774;8.650;2023-03-01T07:49:37;0.40;99.90
22996;DHT22;11664;49.774;8.650;2023-03-01T07:52:12;0.50;99.90
22996;DHT22;11664;49.774;8.650;2023-03-01T07:54:43;0.60;99.90
22996;DHT22;11664;49.774;8.650;2023-03-01T07:57:10;0.70;99.90
22996;DHT22;11664;49.774;8.650;2023-03-01T07:59:44;0.70;99.90
22996;DHT22;11664;49.774;8.650;2023-03-01T08:02:13;0.80;99.90
22996;DHT22;11664;49.774;8.650;2023-03-01T08:04:52;0.90;99.90
22996;DHT22;11664;49.774;8.650;2023-03-01T08:07:21;1.00;99.90
22996;DHT22;11664;49.774;8.650;2023-03-01T08:09:46;1.10;99.90
22996;DHT22;11664;49.774;8.650;2023-03-01T08:12:12;1.10;99.90
22996;DHT22;11664;49.774;8.650;2023-03-01T08:14:43;1.20;99.90
22996;DHT22;11664;49.774;8.650;2023-03-01T08:17:09;1.30;99.90
22996;DHT22;11664;49.774;8.650;2023-03-01T08:19:40;1.40;99.90
22996;DHT22;11664;49.774;8.650;2023-03-01T08:22:09;1.50;99.90
22996;DHT22;11664;49.774;8.650;2023-03-01T08:24:58;1.50;99.90
22996;DHT22;11664;49.774;8.650;2023-03-01T08:27:24;1.60;99.90
22996;DHT22;11664;49.774;8.650;2023-03-01T08:29:53;1.80;99.90
22996;DHT22;11664;49.774;8.650;2023-03-01T08:32:18;1.90;99.90
22996;DHT22;11664;49.774;8.650;2023-03-01T08:34:46;2.00;99.90
22996;DHT22;11664;49.774;8.650;2023-03-01T08:37:15;2.10;99.90
22996;DHT22;11664;49.774;8.650;2023-03-01T08:39:41;2.10;99.90
22996;DHT22;11664;49.774;8.650;2023-03-01T08:42:06;2.10;99.90
22996;DHT22;11664;49.774;8.650;2023-03-01T08:44:32;2.20;99.90
22996;DHT22;11664;49.774;8.650;2023-03-01T08:47:00;2.30;99.90
22996;DHT22;11664;49.774;8.650;2023-03-01T08:49:30;2.40;99.90
22996;DHT22;11664;49.774;8.650;2023-03-01T08:51:57;2.50;99.90
22996;DHT22;11664;49.774;8.650;2023-03-01T08:54:23;2.50;99.90
22996;DHT22;11664;49.774;8.650;2023-03-01T08:56:49;2.60;99.90
22996;DHT22;11664;49.774;8.650;2023-03-01T08:59:16;2.60;99.90
22996;DHT22;11664;49.774;8.650;2023-03-01T09:01:51;2.60;99.90
22996;DHT22;11664;49.774;8.650;2023-03-01T09:04:17;2.70;99.90
22996;DHT22;11664;49.774;8.650;2023-03-01T09:06:48;2.80;99.90
22996;DHT22;11664;49.774;8.650;2023-03-01T09:09:16;2.90;99.90
22996;DHT22;11664;49.774;8.650;2023-03-01T09:11:51;3.00;99.90
22996;DHT22;11664;49.774;8.650;2023-03-01T09:14:16;3.00;99.90
22996;DHT22;11664;49.774;8.650;2023-03-01T09:17:01;3.10;99.90
22996;DHT22;11664;49.774;8.650;2023-03-01T09:19:40;3.20;99.90
22996;DHT22;11664;49.774;8.650;2023-03-01T09:22:06;3.30;99.90
22996;DHT22;11664;49.774;8.650;2023-03-01T09:24:31;3.20;99.90
22996;DHT22;11664;49.774;8.650;2023-03-01T09:27:06;3.40;99.90
22996;DHT22;11664;49.774;8.650;2023-03-01T09:29:37;3.50;99.90
22996;DHT22;11664;49.774;8.650;2023-03-01T09:32:05;3.60;99.90
22996;DHT22;11664;49.774;8.650;2023-03-01T09:34:33;3.60;99.90
22996;DHT22;11664;49.774;8.650;2023-03-01T09:37:18;3.80;99.90
22996;DHT22;11664;49.774;8.650;2023-03-01T09:39:44;3.80;99.90
22996;DHT22;11664;49.774;8.650;2023-03-01T09:42:11;3.90;99.90
22996;DHT22;11664;49.774;8.650;2023-03-01T09:47:25;4.20;99.90
22996;DHT22;11664;49.774;8.650;2023-03-01T09:50:19;4.40;99.90
22996;DHT22;11664;49.774;8.650;2023-03-01T10:02:18;4.60;99.90
22996;DHT22;11664;49.774;8.650;2023-03-01T10:04:49;4.80;99.90
22996;DHT22;11664;49.774;8.650;2023-03-01T10:10:47;5.00;99.90
22996;DHT22;11664;49.774;8.650;2023-03-01T10:13:23;5.10;99.90
22996;DHT22;11664;49.774;8.650;2023-03-01T10:15:58;5.20;99.90
22996;DHT22;11664;49.774;8.650;2023-03-01T10:18:34;5.30;99.90
22996;DHT22;11664;49.774;8.650;2023-03-01T10:21:22;5.30;99.90
22996;DHT22;11664;49.774;8.650;2023-03-01T10:24:18;5.50;99.90
22996;DHT22;11664;49.774;8.650;2023-03-01T10:29:56;5.60;99.90
22996;DHT22;11664;49.774;8.650;2023-03-01T10:32:26;5.60;99.90
22996;DHT22;11664;49.774;8.650;2023-03-01T10:34:52;5.90;99.90
22996;DHT22;11664;49.774;8.650;2023-03-01T10:37:21;6.10;99.90
22996;DHT22;11664;49.774;8.650;2023-03-01T10:40:06;6.20;99.90
22996;DHT22;11664;49.774;8.650;2023-03-01T10:42:52;6.50;99.90
22996;DHT22;11664;49.774;8.650;2023-03-01T10:51:07;6.50;99.90
22996;DHT22;11664;49.774;8.650;2023-03-01T10:53:47;6.70;99.90
22996;DHT22;11664;49.774;8.650;2023-03-01T10:56:19;7.00;99.90
22996;DHT22;11664;49.774;8.650;2023-03-01T10:59:22;7.10;99.90
22996;DHT22;11664;49.774;8.650;2023-03-01T11:02:25;7.20;99.60
22996;DHT22;11664;49.774;8.650;2023-03-01T11:07:58;7.50;98.70
22996;DHT22;11664;49.774;8.650;2023-03-01T11:10:35;7.50;98.30
22996;DHT22;11664;49.774;8.650;2023-03-01T11:13:23;7.80;98.60
22996;DHT22;11664;49.774;8.650;2023-03-01T11:16:06;7.80;97.20
22996;DHT22;11664;49.774;8.650;2023-03-01T11:18:33;7.50;97.00
22996;DHT22;11664;49.774;8.650;2023-03-01T11:20:59;7.70;97.40
22996;DHT22;11664;49.774;8.650;2023-03-01T11:23:29;7.90;97.50
22996;DHT22;11664;49.774;8.650;2023-03-01T11:26:02;7.60;96.00
22996;DHT22;11664;49.774;8.650;2023-03-01T11:28:30;7.90;97.20
22996;DHT22;11664;49.774;8.650;2023-03-01T11:36:51;8.30;95.50
22996;DHT22;11664;49.774;8.650;2023-03-01T11:39:29;8.50;95.30
22996;DHT22;11664;49.774;8.650;2023-03-01T11:44:54;9.00;94.20
22996;DHT22;11664;49.774;8.650;2023-03-01T11:47:55;9.00;94.50
22996;DHT22;11664;49.774;8.650;2023-03-01T11:50:29;8.90;94.50
22996;DHT22;11664;49.774;8.650;2023-03-01T12:12:45;8.50;92.80
22996;DHT22;11664;49.774;8.650;2023-03-01T12:24:04;9.20;92.70
22996;DHT22;11664;49.774;8.650;2023-03-01T12:26:36;9.40;91.50
22996;DHT22;11664;49.774;8.650;2023-03-01T12:49:16;9.70;90.00
22996;DHT22;11664;49.774;8.650;2023-03-01T12:51:54;9.60;86.00
22996;DHT22;11664;49.774;8.650;2023-03-01T12:54:44;9.40;87.20
22996;DHT22;11664;49.774;8.650;2023-03-01T12:57:26;9.50;87.30
22996;DHT22;11664;49.774;8.650;2023-03-01T13:03:19;10.20;87.70
22996;DHT22;11664;49.774;8.650;2023-03-01T13:06:08;10.00;85.90
22996;DHT22;11664;49.774;8.650;2023-03-01T13:12:03;9.90;85.40
22996;DHT22;11664;49.774;8.650;2023-03-01T13:14:45;9.70;86.20
22996;DHT22;11664;49.774;8.650;2023-03-01T13:17:30;9.70;86.00
22996;DHT22;11664;49.774;8.650;2023-03-01T13:19:58;9.90;85.80
22996;DHT22;11664;49.774;8.650;2023-03-01T13:22:30;10.10;86.40
22996;DHT22;11664;49.774;8.650;2023-03-01T13:25:34;10.30;85.50
22996;DHT22;11664;49.774;8.650;2023-03-01T13:31:04;10.60;82.80
22996;DHT22;11664;49.774;8.650;2023-03-01T13:33:51;10.80;84.10
22996;DHT22;11664;49.774;8.650;2023-03-01T13:44:25;11.80;80.70
22996;DHT22;11664;49.774;8.650;2023-03-01T13:49:57;11.50;79.10
22996;DHT22;11664;49.774;8.650;2023-03-01T13:55:30;11.20;79.30
22996;DHT22;11664;49.774;8.650;2023-03-01T13:58:14;11.30;79.20
22996;DHT22;11664;49.774;8.650;2023-03-01T14:00:40;11.40;78.10
22996;DHT22;11664;49.774;8.650;2023-03-01T14:03:11;11.50;78.30
22996;DHT22;11664;49.774;8.650;2023-03-01T14:05:39;11.70;79.20
22996;DHT22;11664;49.774;8.650;2023-03-01T14:08:22;12.00;78.00
22996;DHT22;11664;49.774;8.650;2023-03-01T14:11:20;12.00;75.60
22996;DHT22;11664;49.774;8.650;2023-03-01T14:14:14;11.90;75.40
22996;DHT22;11664;49.774;8.650;2023-03-01T14:17:32;11.90;75.70
22996;DHT22;11664;49.774;8.650;2023-03-01T14:19:38;11.90;74.30
22996;DHT22;11664;49.774;8.650;2023-03-01T14:22:37;11.80;74.70
22996;DHT22;11664;49.774;8.650;2023-03-01T14:25:24;11.70;75.00
22996;DHT22;11664;49.774;8.650;2023-03-01T14:33:25;12.00;74.10
22996;DHT22;11664;49.774;8.650;2023-03-01T14:36:09;11.90;72.60
22996;DHT22;11664;49.774;8.650;2023-03-01T14:38:43;11.80;71.90
22996;DHT22;11664;49.774;8.650;2023-03-01T14:41:17;11.90;72.90
22996;DHT22;11664;49.774;8.650;2023-03-01T14:44:01;12.10;72.70
22996;DHT22;11664;49.774;8.650;2023-03-01T14:46:36;12.10;71.70
22996;DHT22;11664;49.774;8.650;2023-03-01T14:49:24;12.00;72.00
22996;DHT22;11664;49.774;8.650;2023-03-01T14:51:58;12.10;71.60
22996;DHT22;11664;49.774;8.650;2023-03-01T14:57:20;12.60;70.10
22996;DHT22;11664;49.774;8.650;2023-03-01T14:59:47;12.50;71.10
22996;DHT22;11664;49.774;8.650;2023-03-01T15:02:23;12.50;71.10
22996;DHT22;11664;49.774;8.650;2023-03-01T15:04:57;12.10;70.90
22996;DHT22;11664;49.774;8.650;2023-03-01T15:09:59;12.20;97.80
22996;DHT22;11664;49.774;8.650;2023-03-01T15:12:35;12.60;72.00
22996;DHT22;11664;49.774;8.650;2023-03-01T15:17:54;12.60;72.50
22996;DHT22;11664;49.774;8.650;2023-03-01T15:20:22;12.60;72.10
22996;DHT22;11664;49.774;8.650;2023-03-01T15:22:57;12.60;71.50
22996;DHT22;11664;49.774;8.650;2023-03-01T15:25:25;12.30;71.90
22996;DHT22;11664;49.774;8.650;2023-03-01T15:28:02;12.10;72.20
22996;DHT22;11664;49.774;8.650;2023-03-01T15:30:53;12.50;73.00
22996;DHT22;11664;49.774;8.650;2023-03-01T15:33:32;12.10;72.60
22996;DHT22;11664;49.774;8.650;2023-03-01T15:36:31;11.90;73.60
22996;DHT22;11664;49.774;8.650;2023-03-01T15:38:58;11.90;73.70
22996;DHT22;11664;49.774;8.650;2023-03-01T15:44:18;11.90;74.50
22996;DHT22;11664;49.774;8.650;2023-03-01T15:46:53;11.60;75.10
22996;DHT22;11664;49.774;8.650;2023-03-01T15:49:38;11.80;74.80
22996;DHT22;11664;49.774;8.650;2023-03-01T15:52:11;11.70;75.00
22996;DHT22;11664;49.774;8.650;2023-03-01T15:54:46;11.40;75.80
22996;DHT22;11664;49.774;8.650;2023-03-01T15:57:15;11.40;75.90
22996;DHT22;11664;49.774;8.650;2023-03-01T15:59:44;11.00;76.70
22996;DHT22;11664;49.774;8.650;2023-03-01T16:02:12;11.00;77.30
22996;DHT22;11664;49.774;8.650;2023-03-01T16:04:41;11.10;77.90
22996;DHT22;11664;49.774;8.650;2023-03-01T16:07:17;10.90;77.30
22996;DHT22;11664;49.774;8.650;2023-03-01T16:09:45;10.60;78.00
22996;DHT22;11664;49.774;8.650;2023-03-01T16:17:22;10.60;78.60
22996;DHT22;11664;49.774;8.650;2023-03-01T16:22:25;10.20;80.50
22996;DHT22;11664;49.774;8.650;2023-03-01T16:24:58;9.90;81.80
22996;DHT22;11664;49.774;8.650;2023-03-01T16:27:27;9.30;83.40
22996;DHT22;11664;49.774;8.650;2023-03-01T16:30:12;8.90;84.80
22996;DHT22;11664;49.774;8.650;2023-03-01T16:33:00;8.50;87.00
22996;DHT22;11664;49.774;8.650;2023-03-01T16:35:24;8.30;87.90
22996;DHT22;11664;49.774;8.650;2023-03-01T16:37:53;8.10;90.00
22996;DHT22;11664;49.774;8.650;2023-03-01T16:40:24;8.00;90.10
22996;DHT22;11664;49.774;8.650;2023-03-01T16:42:58;7.90;90.00
22996;DHT22;11664;49.774;8.650;2023-03-01T16:45:27;7.80;90.60
22996;DHT22;11664;49.774;8.650;2023-03-01T16:47:53;7.70;91.00
22996;DHT22;11664;49.774;8.650;2023-03-01T16:50:22;7.60;91.60
22996;DHT22;11664;49.774;8.650;2023-03-01T16:52:50;7.50;91.90
22996;DHT22;11664;49.774;8.650;2023-03-01T16:55:17;7.40;92.10
22996;DHT22;11664;49.774;8.650;2023-03-01T16:57:45;7.30;92.40
22996;DHT22;11664;49.774;8.650;2023-03-01T17:00:18;7.20;92.40
22996;DHT22;11664;49.774;8.650;2023-03-01T17:02:43;7.10;92.90
22996;DHT22;11664;49.774;8.650;2023-03-01T17:05:16;7.10;93.30
22996;DHT22;11664;49.774;8.650;2023-03-01T17:07:45;7.00;93.30
22996;DHT22;11664;49.774;8.650;2023-03-01T17:10:20;6.90;94.10
22996;DHT22;11664;49.774;8.650;2023-03-01T17:12:48;6.80;94.00
22996;DHT22;11664;49.774;8.650;2023-03-01T17:15:17;6.70;94.50
22996;DHT22;11664;49.774;8.650;2023-03-01T17:17:43;6.60;95.10
22996;DHT22;11664;49.774;8.650;2023-03-01T17:20:09;6.50;95.50
22996;DHT22;11664;49.774;8.650;2023-03-01T17:22:44;6.50;95.50
22996;DHT22;11664;49.774;8.650;2023-03-01T17:25:16;6.40;95.90
22996;DHT22;11664;49.774;8.650;2023-03-01T17:27:44;6.40;96.00
22996;DHT22;11664;49.774;8.650;2023-03-01T17:30:13;6.30;96.80
22996;DHT22;11664;49.774;8.650;2023-03-01T17:32:45;6.20;97.00
22996;DHT22;11664;49.774;8.650;2023-03-01T17:35:14;6.20;97.00
22996;DHT22;11664;49.774;8.650;2023-03-01T17:37:43;6.10;97.60
22996;DHT22;11664;49.774;8.650;2023-03-01T17:40:13;6.00;97.90
22996;DHT22;11664;49.774;8.650;2023-03-01T17:42:48;6.00;97.90
22996;DHT22;11664;49.774;8.650;2023-03-01T17:45:14;6.00;98.10
22996;DHT22;11664;49.774;8.650;2023-03-01T17:47:39;5.90;98.50
22996;DHT22;11664;49.774;8.650;2023-03-01T17:50:08;5.80;98.80
22996;DHT22;11664;49.774;8.650;2023-03-01T17:52:52;5.80;99.10
22996;DHT22;11664;49.774;8.650;2023-03-01T17:55:21;5.70;99.30
22996;DHT22;11664;49.774;8.650;2023-03-01T17:57:47;5.70;99.40
22996;DHT22;11664;49.774;8.650;2023-03-01T18:00:16;5.60;99.80
22996;DHT22;11664;49.774;8.650;2023-03-01T18:02:45;5.60;99.90
22996;DHT22;11664;49.774;8.650;2023-03-01T18:05:14;5.50;99.90
22996;DHT22;11664;49.774;8.650;2023-03-01T18:07:41;5.50;99.90
22996;DHT22;11664;49.774;8.650;2023-03-01T18:10:07;5.40;99.90
22996;DHT22;11664;49.774;8.650;2023-03-01T18:12:42;5.40;99.90
22996;DHT22;11664;49.774;8.650;2023-03-01T18:15:11;5.40;99.90
22996;DHT22;11664;49.774;8.650;2023-03-01T18:17:49;5.40;99.90
22996;DHT22;11664;49.774;8.650;2023-03-01T18:20:15;5.30;99.90
22996;DHT22;11664;49.774;8.650;2023-03-01T18:22:42;5.20;99.90
22996;DHT22;11664;49.774;8.650;2023-03-01T18:25:08;5.20;99.90
22996;DHT22;11664;49.774;8.650;2023-03-01T18:27:48;5.20;99.90
22996;DHT22;11664;49.774;8.650;2023-03-01T18:30:26;5.20;99.90
22996;DHT22;11664;49.774;8.650;2023-03-01T18:32:55;5.20;99.90
22996;DHT22;11664;49.774;8.650;2023-03-01T18:35:22;5.20;99.90
22996;DHT22;11664;49.774;8.650;2023-03-01T18:37:48;5.20;99.90
22996;DHT22;11664;49.774;8.650;2023-03-01T18:40:23;5.20;99.90